createdAt,value
2019-05-17T00:01:16.638Z,100818.98
2019-05-17T00:03:56.396Z,100813.35
2019-05-17T00:06:27.534Z,100814.50
2019-05-17T00:08:58.456Z,100813.78
2019-05-17T00:11:28.981Z,100805.33
2019-05-17T00:13:59.726Z,100800.81
2019-05-17T00:16:34.173Z,100804.12
2019-05-17T00:19:04.775Z,100786.80
2019-05-17T00:21:38.933Z,100794.78
2019-05-17T00:24:09.735Z,100793.80
2019-05-17T00:26:40.564Z,100786.59
2019-05-17T00:29:11.224Z,100784.83
2019-05-17T00:31:43.443Z,100779.07
2019-05-17T00:34:16.774Z,100776.17
2019-05-17T00:36:47.816Z,100770.00
2019-05-17T00:39:18.545Z,100769.53
2019-05-17T00:41:49.244Z,100764.70
2019-05-17T00:44:19.929Z,100763.83
2019-05-17T00:46:50.509Z,100770.73
2019-05-17T00:49:22.093Z,100763.94
2019-05-17T00:51:53.782Z,100760.56
2019-05-17T00:54:26.783Z,100758.38
2019-05-17T00:57:03.404Z,100753.66
2019-05-17T00:59:34.171Z,100754.70
2019-05-17T01:02:06.864Z,100750.28
2019-05-17T01:04:37.338Z,100747.28
2019-05-17T01:07:08.026Z,100743.23
2019-05-17T01:09:38.534Z,100751.33
2019-05-17T01:12:10.313Z,100745.66
2019-05-17T01:14:41.076Z,100746.51
2019-05-17T01:17:11.666Z,100743.64
2019-05-17T01:19:42.244Z,100740.84
2019-05-17T01:22:13.974Z,100734.95
2019-05-17T01:24:46.295Z,100734.27
2019-05-17T01:27:18.005Z,100730.05
2019-05-17T01:29:48.610Z,100726.66
2019-05-17T01:32:19.315Z,100729.42
2019-05-17T01:34:56.311Z,100724.53
2019-05-17T01:37:27.687Z,100720.25
2019-05-17T01:39:58.488Z,100723.19
2019-05-17T01:42:29.269Z,100718.06
2019-05-17T01:45:09.580Z,100724.03
2019-05-17T01:47:40.260Z,100718.94
2019-05-17T01:50:11.494Z,100712.20
2019-05-17T01:52:42.114Z,100713.55
2019-05-17T01:55:12.794Z,100710.84
2019-05-17T01:57:43.513Z,100706.06
2019-05-17T02:00:17.760Z,100702.97
2019-05-17T02:02:53.554Z,100704.88
2019-05-17T02:05:27.512Z,100700.47
2019-05-17T02:08:17.088Z,100697.77
2019-05-17T02:10:48.003Z,100695.64
2019-05-17T02:13:20.572Z,100690.92
2019-05-17T02:15:51.209Z,100685.81
2019-05-17T02:18:22.825Z,100691.03
2019-05-17T02:20:53.539Z,100687.26
2019-05-17T02:23:24.363Z,100684.43
2019-05-17T02:25:57.187Z,100689.82
2019-05-17T02:28:28.995Z,100680.32
2019-05-17T02:31:03.574Z,100682.74
2019-05-17T02:33:37.349Z,100684.63
2019-05-17T02:36:08.036Z,100685.51
2019-05-17T02:38:38.723Z,100677.42
2019-05-17T02:41:09.401Z,100680.98
2019-05-17T02:43:43.181Z,100671.93
2019-05-17T02:46:13.909Z,100675.77
2019-05-17T02:48:44.659Z,100677.80
2019-05-17T02:51:15.419Z,100671.90
2019-05-17T02:53:46.097Z,100672.37
2019-05-17T02:56:16.781Z,100671.80
2019-05-17T02:58:47.529Z,100672.41
2019-05-17T03:01:19.270Z,100672.23
2019-05-17T03:03:55.819Z,100672.37
2019-05-17T03:06:26.580Z,100674.49
2019-05-17T03:08:57.149Z,100676.14
2019-05-17T03:11:27.933Z,100673.15
2019-05-17T03:13:58.522Z,100670.75
2019-05-17T03:16:29.371Z,100666.98
2019-05-17T03:19:03.803Z,100672.77
2019-05-17T03:21:33.721Z,100670.08
2019-05-17T03:24:04.957Z,100661.59
2019-05-17T03:26:35.624Z,100662.06
2019-05-17T03:29:06.209Z,100662.16
2019-05-17T03:31:44.812Z,100657.64
2019-05-17T03:34:16.589Z,100654.00
2019-05-17T03:36:46.654Z,100653.23
2019-05-17T03:39:16.610Z,100656.23
2019-05-17T03:41:47.383Z,100652.08
2019-05-17T03:44:25.150Z,100652.28
2019-05-17T03:46:55.845Z,100647.53
2019-05-17T03:49:26.507Z,100650.47
2019-05-17T03:51:57.202Z,100655.08
2019-05-17T03:54:28.993Z,100656.12
2019-05-17T03:57:02.675Z,100647.77
2019-05-17T03:59:33.699Z,100643.73
2019-05-17T04:02:04.431Z,100643.82
2019-05-17T04:04:35.112Z,100640.52
2019-05-17T04:07:17.313Z,100642.84
2019-05-17T04:09:48.048Z,100641.32
2019-05-17T04:12:18.767Z,100638.05
2019-05-17T04:14:53.341Z,100634.28
2019-05-17T04:17:23.110Z,100635.16
2019-05-17T04:19:55.850Z,100637.88
2019-05-17T04:22:33.295Z,100636.20
2019-05-17T04:25:05.265Z,100629.02
2019-05-17T04:27:35.888Z,100634.33
2019-05-17T04:30:07.978Z,100631.13
2019-05-17T04:32:38.774Z,100629.98
2019-05-17T04:35:17.302Z,100625.53
2019-05-17T04:37:47.889Z,100621.78
2019-05-17T04:40:18.699Z,100626.13
2019-05-17T04:42:52.440Z,100623.80
2019-05-17T04:45:28.512Z,100623.03
2019-05-17T04:47:59.245Z,100619.39
2019-05-17T04:50:33.251Z,100618.41
2019-05-17T04:53:05.386Z,100616.59
2019-05-17T04:55:35.938Z,100613.41
2019-05-17T04:58:16.830Z,100609.56
2019-05-17T05:00:47.412Z,100612.73
2019-05-17T05:03:18.146Z,100615.76
2019-05-17T05:05:48.824Z,100618.89
2019-05-17T05:08:22.433Z,100612.30
2019-05-17T05:10:53.690Z,100621.74
2019-05-17T05:13:24.665Z,100622.10
2019-05-17T05:15:55.211Z,100616.72
2019-05-17T05:18:25.893Z,100616.44
2019-05-17T05:21:03.371Z,100615.91
2019-05-17T05:23:33.055Z,100614.98
2019-05-17T05:26:03.835Z,100631.75
2019-05-17T05:28:34.512Z,100630.26
2019-05-17T05:31:05.091Z,100621.78
2019-05-17T05:33:36.942Z,100628.23
2019-05-17T05:36:17.562Z,100631.94
2019-05-17T05:38:48.280Z,100630.44
2019-05-17T05:41:19.040Z,100625.04
2019-05-17T05:43:49.785Z,100627.54
2019-05-17T05:46:22.611Z,100627.95
2019-05-17T05:48:53.266Z,100627.20
2019-05-17T05:51:23.998Z,100626.88
2019-05-17T05:53:54.930Z,100626.60
2019-05-17T05:56:25.679Z,100629.58
2019-05-17T05:58:56.339Z,100623.61
2019-05-17T06:01:27.033Z,100620.07
2019-05-17T06:03:58.740Z,100623.76
2019-05-17T06:06:29.338Z,100622.58
2019-05-17T06:09:05.973Z,100620.00
2019-05-17T06:11:36.576Z,100615.84
2019-05-17T06:14:13.296Z,100622.61
2019-05-17T06:16:43.877Z,100618.46
2019-05-17T06:19:14.500Z,100619.13
2019-05-17T06:22:02.784Z,100619.31
2019-05-17T06:24:33.591Z,100616.91
2019-05-17T06:27:04.632Z,100613.14
2019-05-17T06:29:41.366Z,100614.57
2019-05-17T06:32:11.888Z,100609.97
2019-05-17T06:34:43.688Z,100603.98
2019-05-17T06:37:27.441Z,100614.39
2019-05-17T06:39:59.060Z,100607.05
2019-05-17T06:42:40.364Z,100609.78
2019-05-17T06:45:06.899Z,100602.86
2019-05-17T06:47:37.506Z,100602.95
2019-05-17T06:50:08.242Z,100602.34
2019-05-17T06:52:38.915Z,100599.06
2019-05-17T06:55:12.806Z,100603.25
2019-05-17T06:57:45.991Z,100594.57
2019-05-17T07:00:20.835Z,100600.34
2019-05-17T07:02:53.448Z,100601.97
2019-05-17T07:05:25.869Z,100595.61
2019-05-17T07:07:56.470Z,100592.81
2019-05-17T07:10:27.299Z,100584.93
2019-05-17T07:12:59.630Z,100586.58
2019-05-17T07:15:43.388Z,100576.95
2019-05-17T07:18:03.507Z,100584.73
2019-05-17T07:20:34.551Z,100579.52
2019-05-17T07:23:05.134Z,100583.75
2019-05-17T07:25:35.820Z,100580.69
2019-05-17T07:28:06.504Z,100586.66
2019-05-17T07:30:40.038Z,100579.92
2019-05-17T07:33:11.070Z,100581.84
2019-05-17T07:35:41.753Z,100581.63
2019-05-17T07:38:12.434Z,100580.25
2019-05-17T07:40:43.003Z,100582.22
2019-05-17T07:43:14.839Z,100582.14
2019-05-17T07:45:45.788Z,100566.72
2019-05-17T07:48:16.519Z,100571.20
2019-05-17T07:50:47.176Z,100574.84
2019-05-17T07:53:19.781Z,100564.62
2019-05-17T07:55:50.610Z,100566.21
2019-05-17T07:58:21.622Z,100559.13
2019-05-17T08:00:52.459Z,100563.10
2019-05-17T08:03:30.381Z,100552.72
2019-05-17T08:06:03.224Z,100553.41
2019-05-17T08:08:34.003Z,100543.55
2019-05-17T08:11:06.713Z,100548.11
2019-05-17T08:13:39.682Z,100543.11
2019-05-17T08:16:10.410Z,100539.98
2019-05-17T08:18:41.104Z,100533.43
2019-05-17T08:21:11.703Z,100528.63
2019-05-17T08:23:42.385Z,100523.66
2019-05-17T08:26:13.075Z,100522.18
2019-05-17T08:28:43.714Z,100517.03
2019-05-17T08:31:14.330Z,100527.27
2019-05-17T08:33:45.064Z,100524.38
2019-05-17T08:36:16.764Z,100522.01
2019-05-17T08:38:47.335Z,100521.11
2019-05-17T08:41:20.623Z,100519.05
2019-05-17T08:43:51.450Z,100516.59
2019-05-17T08:46:22.346Z,100513.17
2019-05-17T08:49:09.788Z,100517.11
2019-05-17T08:51:40.584Z,100519.00
2019-05-17T08:54:11.277Z,100511.26
2019-05-17T08:56:41.951Z,100514.19
2019-05-17T08:59:12.614Z,100516.83
2019-05-17T09:01:43.289Z,100505.47
2019-05-17T09:04:13.998Z,100504.17
2019-05-17T09:06:50.462Z,100501.44
2019-05-17T09:09:21.269Z,100498.09
2019-05-17T09:11:51.806Z,100495.59
2019-05-17T09:14:22.407Z,100497.70
2019-05-17T09:17:00.635Z,100500.15
2019-05-17T09:19:31.310Z,100493.55
2019-05-17T09:22:01.974Z,100500.58
2019-05-17T09:24:32.685Z,100498.51
2019-05-17T09:27:03.378Z,100490.36
2019-05-17T09:29:40.205Z,100492.28
2019-05-17T09:32:10.416Z,100490.33
2019-05-17T09:34:41.090Z,100491.09
2019-05-17T09:37:14.569Z,100489.58
2019-05-17T09:39:44.105Z,100495.23
2019-05-17T09:42:14.823Z,100489.57
2019-05-17T09:44:46.459Z,100489.23
2019-05-17T09:47:20.448Z,100486.76
2019-05-17T09:49:50.417Z,100480.68
2019-05-17T09:52:21.106Z,100478.79
2019-05-17T09:54:51.690Z,100479.68
2019-05-17T09:57:22.307Z,100473.52
2019-05-17T09:59:55.905Z,100476.22
2019-05-17T10:02:25.276Z,100474.91
2019-05-17T10:05:07.227Z,100475.66
2019-05-17T10:07:40.393Z,100472.69
2019-05-17T10:10:10.903Z,100469.47
2019-05-17T10:12:44.562Z,100475.95
2019-05-17T10:15:16.194Z,100475.98
2019-05-17T10:17:46.845Z,100476.42
2019-05-17T10:20:20.017Z,100471.22
2019-05-17T10:22:50.755Z,100469.39
2019-05-17T10:25:21.387Z,100470.66
2019-05-17T10:27:52.176Z,100472.33
2019-05-17T10:30:22.846Z,100463.39
2019-05-17T10:32:53.516Z,100471.04
2019-05-17T10:35:24.229Z,100462.27
2019-05-17T10:37:54.938Z,100462.63
2019-05-17T10:40:25.669Z,100462.19
2019-05-17T10:42:56.250Z,100463.56
2019-05-17T10:45:26.825Z,100454.04
2019-05-17T10:47:57.415Z,100451.89
2019-05-17T10:50:29.778Z,100454.47
2019-05-17T10:53:00.770Z,100452.75
2019-05-17T10:55:31.517Z,100455.72
2019-05-17T10:58:02.174Z,100443.45
2019-05-17T11:00:32.853Z,100456.16
2019-05-17T11:03:03.655Z,100456.63
2019-05-17T11:05:34.337Z,100449.03
2019-05-17T11:08:05.067Z,100454.47
2019-05-17T11:10:35.810Z,100458.27
2019-05-17T11:13:08.539Z,100455.44
2019-05-17T11:15:39.136Z,100462.38
2019-05-17T11:18:09.933Z,100459.33
2019-05-17T11:20:40.596Z,100461.40
2019-05-17T11:23:11.219Z,100461.52
2019-05-17T11:25:45.880Z,100463.39
2019-05-17T11:28:17.183Z,100463.91
2019-05-17T11:30:47.770Z,100458.81
2019-05-17T11:33:19.497Z,100469.19
2019-05-17T11:35:50.135Z,100468.20
2019-05-17T11:38:20.899Z,100470.73
2019-05-17T11:40:54.587Z,100478.70
2019-05-17T11:43:25.235Z,100471.67
2019-05-17T11:45:55.921Z,100475.34
2019-05-17T11:48:28.566Z,100471.30
2019-05-17T11:51:00.165Z,100471.94
2019-05-17T11:53:30.860Z,100467.73
2019-05-17T11:56:02.758Z,100458.22
2019-05-17T11:58:33.278Z,100465.30
2019-05-17T12:01:04.010Z,100465.73
2019-05-17T12:03:40.251Z,100463.91
2019-05-17T12:06:22.998Z,100464.98
2019-05-17T12:08:53.744Z,100461.28
2019-05-17T12:11:27.356Z,100462.48
2019-05-17T12:13:58.028Z,100460.27
2019-05-17T12:16:28.593Z,100466.33
2019-05-17T12:19:00.130Z,100465.46
2019-05-17T12:21:30.865Z,100459.50
2019-05-17T12:24:02.453Z,100461.56
2019-05-17T12:26:33.131Z,100460.33
2019-05-17T12:29:04.802Z,100466.05
2019-05-17T12:31:37.524Z,100455.72
2019-05-17T12:34:11.249Z,100450.64
2019-05-17T12:36:41.902Z,100454.01
2019-05-17T12:39:13.640Z,100455.52
2019-05-17T12:41:44.343Z,100456.80
2019-05-17T12:44:14.955Z,100450.80
2019-05-17T12:46:45.711Z,100456.58
2019-05-17T12:49:19.518Z,100455.88
2019-05-17T12:51:50.003Z,100454.59
2019-05-17T12:54:21.657Z,100462.92
2019-05-17T12:56:53.317Z,100456.81
2019-05-17T12:59:24.101Z,100451.91
2019-05-17T13:01:54.813Z,100449.66
2019-05-17T13:04:29.472Z,100451.64
2019-05-17T13:07:00.152Z,100449.74
2019-05-17T13:09:30.842Z,100452.41
2019-05-17T13:12:01.465Z,100456.56
2019-05-17T13:14:34.153Z,100449.68
2019-05-17T13:17:11.547Z,100454.25
2019-05-17T13:19:42.256Z,100446.92
2019-05-17T13:22:13.018Z,100444.30
2019-05-17T13:24:43.831Z,100451.20
2019-05-17T13:27:14.481Z,100448.36
2019-05-17T13:29:45.228Z,100449.50
2019-05-17T13:32:15.925Z,100449.47
2019-05-17T13:34:46.626Z,100445.92
2019-05-17T13:37:24.276Z,100450.73
2019-05-17T13:39:54.877Z,100443.64
2019-05-17T13:42:31.519Z,100449.05
2019-05-17T13:45:08.588Z,100449.95
2019-05-17T13:47:39.168Z,100450.86
2019-05-17T13:50:11.403Z,100439.05
2019-05-17T13:52:42.138Z,100438.98
2019-05-17T13:55:17.694Z,100432.02
2019-05-17T13:57:48.337Z,100435.95
2019-05-17T14:00:19.177Z,100426.94
2019-05-17T14:02:49.850Z,100428.23
2019-05-17T14:05:20.575Z,100421.95
2019-05-17T14:07:53.154Z,100425.42
2019-05-17T14:10:27.254Z,100426.30
2019-05-17T14:12:56.239Z,100423.87
2019-05-17T14:15:30.411Z,100423.20
2019-05-17T14:18:01.100Z,100427.58
2019-05-17T14:20:31.956Z,100425.02
2019-05-17T14:23:03.129Z,100424.77
2019-05-17T14:25:33.892Z,100414.70
2019-05-17T14:28:11.840Z,100416.45
2019-05-17T14:30:42.537Z,100420.25
2019-05-17T14:33:13.313Z,100416.31
2019-05-17T14:35:44.152Z,100416.17
2019-05-17T14:38:14.857Z,100420.63
2019-05-17T14:41:05.863Z,100416.66
2019-05-17T14:43:19.032Z,100415.21
2019-05-17T14:45:49.656Z,100415.41
2019-05-17T14:48:20.308Z,100413.69
2019-05-17T14:50:51.945Z,100413.95
2019-05-17T14:53:22.567Z,100416.30
2019-05-17T14:55:53.439Z,100415.71
2019-05-17T14:58:31.978Z,100414.75
2019-05-17T15:01:04.073Z,100410.17
2019-05-17T15:03:43.027Z,100412.04
2019-05-17T15:06:13.811Z,100410.56
2019-05-17T15:08:44.570Z,100410.16
2019-05-17T15:11:17.320Z,100407.33
2019-05-17T15:13:48.907Z,100408.94
2019-05-17T15:16:21.661Z,100407.73
2019-05-17T15:18:52.376Z,100402.18
2019-05-17T15:21:23.392Z,100404.77
2019-05-17T15:23:56.135Z,100395.46
2019-05-17T15:26:28.863Z,100388.09
2019-05-17T15:29:05.507Z,100391.16
2019-05-17T15:31:36.283Z,100386.88
2019-05-17T15:34:06.939Z,100377.62
2019-05-17T15:36:40.703Z,100378.15
2019-05-17T15:39:13.323Z,100374.70
2019-05-17T15:41:44.060Z,100370.63
2019-05-17T15:44:14.755Z,100373.22
2019-05-17T15:46:50.379Z,100370.63
2019-05-17T15:49:20.986Z,100376.89
2019-05-17T15:51:51.715Z,100376.73
2019-05-17T15:54:22.306Z,100373.91
2019-05-17T15:56:52.907Z,100358.19
2019-05-17T15:59:24.547Z,100365.09
2019-05-17T16:01:55.312Z,100359.69
2019-05-17T16:04:27.960Z,100351.57
2019-05-17T16:06:58.764Z,100351.34
2019-05-17T16:09:36.300Z,100346.68
2019-05-17T16:12:07.072Z,100340.78
2019-05-17T16:14:37.744Z,100341.05
2019-05-17T16:17:08.508Z,100340.88
2019-05-17T16:19:39.200Z,100338.91
2019-05-17T16:22:09.963Z,100341.27
2019-05-17T16:24:41.685Z,100333.14
2019-05-17T16:27:15.431Z,100330.56
2019-05-17T16:29:46.126Z,100334.27
2019-05-17T16:32:16.884Z,100327.25
2019-05-17T16:34:50.847Z,100326.77
2019-05-17T16:37:21.542Z,100324.31
2019-05-17T16:39:52.202Z,100321.00
2019-05-17T16:42:24.876Z,100321.61
2019-05-17T16:44:55.540Z,100318.42
2019-05-17T16:47:28.272Z,100318.03
2019-05-17T16:49:58.901Z,100320.87
2019-05-17T16:52:29.574Z,100314.97
2019-05-17T16:55:00.337Z,100314.97
2019-05-17T16:57:31.979Z,100311.52
2019-05-17T17:00:02.904Z,100310.78
2019-05-17T17:02:33.577Z,100312.88
2019-05-17T17:05:04.254Z,100311.77
2019-05-17T17:07:39.295Z,100308.36
2019-05-17T17:10:15.079Z,100304.91
2019-05-17T17:12:45.742Z,100305.87
2019-05-17T17:15:16.657Z,100308.22
2019-05-17T17:17:52.436Z,100305.16
2019-05-17T17:20:23.056Z,100313.02
2019-05-17T17:22:53.885Z,100309.34
2019-05-17T17:25:25.485Z,100313.16
2019-05-17T17:27:59.724Z,100310.70
2019-05-17T17:30:35.366Z,100303.44
2019-05-17T17:33:06.060Z,100302.83
2019-05-17T17:35:36.667Z,100300.72
2019-05-17T17:38:07.440Z,100301.11
2019-05-17T17:40:40.101Z,100303.55
2019-05-17T17:43:10.895Z,100299.26
2019-05-17T17:45:41.600Z,100304.06
2019-05-17T17:48:13.206Z,100297.52
2019-05-17T17:50:44.456Z,100295.55
2019-05-17T17:53:15.309Z,100300.61
2019-05-17T17:55:45.965Z,100295.94
2019-05-17T17:58:16.730Z,100303.31
2019-05-17T18:00:49.447Z,100306.42
2019-05-17T18:03:23.250Z,100307.78
2019-05-17T18:05:53.775Z,100300.27
2019-05-17T18:08:27.964Z,100301.98
2019-05-17T18:10:58.799Z,100305.94
2019-05-17T18:13:29.486Z,100307.14
2019-05-17T18:16:08.575Z,100301.09
2019-05-17T18:18:40.087Z,100304.19
2019-05-17T18:21:10.795Z,100306.41
2019-05-17T18:23:42.501Z,100304.05
2019-05-17T18:26:15.137Z,100304.19
2019-05-17T18:28:45.920Z,100300.12
2019-05-17T18:31:16.577Z,100301.95
2019-05-17T18:33:47.340Z,100303.45
2019-05-17T18:36:18.940Z,100303.55
2019-05-17T18:39:05.178Z,100302.70
2019-05-17T18:41:39.500Z,100302.09
2019-05-17T18:44:10.186Z,100302.70
2019-05-17T18:46:40.863Z,100298.26
2019-05-17T18:49:11.564Z,100303.55
2019-05-17T18:51:42.233Z,100305.03
2019-05-17T18:54:13.500Z,100298.88
2019-05-17T18:56:44.178Z,100298.00
2019-05-17T18:59:16.862Z,100302.45
2019-05-17T19:01:47.598Z,100296.65
2019-05-17T19:04:20.241Z,100300.84
2019-05-17T19:06:52.091Z,100301.84
2019-05-17T19:09:23.210Z,100304.56
2019-05-17T19:11:54.883Z,100306.75
2019-05-17T19:14:25.530Z,100300.84
2019-05-17T19:16:56.551Z,100298.14
2019-05-17T19:19:28.386Z,100306.88
2019-05-17T19:22:02.197Z,100316.01
2019-05-17T19:24:32.861Z,100313.14
2019-05-17T19:27:03.465Z,100315.85
2019-05-17T19:29:34.225Z,100321.05
2019-05-17T19:32:07.656Z,100323.50
2019-05-17T19:34:39.358Z,100326.56
2019-05-17T19:37:12.131Z,100324.23
2019-05-17T19:39:43.029Z,100328.17
2019-05-17T19:42:15.984Z,100328.27
2019-05-17T19:44:58.750Z,100331.60
2019-05-17T19:47:32.059Z,100333.47
2019-05-17T19:50:02.937Z,100336.53
2019-05-17T19:52:33.612Z,100331.86
2019-05-17T19:55:14.834Z,100339.50
2019-05-17T19:57:45.626Z,100335.53
2019-05-17T20:00:24.335Z,100334.92
2019-05-17T20:02:56.031Z,100333.18
2019-05-17T20:05:26.745Z,100332.70
2019-05-17T20:07:57.614Z,100329.64
2019-05-17T20:10:31.624Z,100328.64
2019-05-17T20:13:12.747Z,100333.18
2019-05-17T20:16:06.156Z,100336.24
2019-05-17T20:18:37.078Z,100334.15
2019-05-17T20:21:14.227Z,100337.47
2019-05-17T20:23:51.626Z,100337.85
2019-05-17T20:26:25.789Z,100333.41
2019-05-17T20:28:56.843Z,100329.95
2019-05-17T20:32:01.141Z,100324.93
2019-05-17T20:34:32.169Z,100330.70
2019-05-17T20:37:02.930Z,100325.89
2019-05-17T20:39:34.618Z,100326.98
2019-05-17T20:42:05.316Z,100334.27
2019-05-17T20:44:36.260Z,100329.82
2019-05-17T20:47:06.939Z,100323.67
2019-05-17T20:49:48.151Z,100325.15
2019-05-17T20:52:19.914Z,100330.30
2019-05-17T20:54:52.680Z,100331.39
2019-05-17T20:57:23.321Z,100329.17
2019-05-17T20:59:54.057Z,100332.48
2019-05-17T21:02:24.913Z,100332.62
2019-05-17T21:04:55.872Z,100330.88
2019-05-17T21:07:26.556Z,100325.98
2019-05-17T21:09:58.444Z,100331.87
2019-05-17T21:12:29.526Z,100332.96
2019-05-17T21:15:00.384Z,100328.30
2019-05-17T21:17:32.477Z,100325.23
2019-05-17T21:20:03.274Z,100325.09
2019-05-17T21:22:34.189Z,100328.28
2019-05-17T21:25:05.178Z,100324.94
2019-05-17T21:27:36.095Z,100322.22
2019-05-17T21:30:07.580Z,100324.94
2019-05-17T21:32:38.435Z,100325.92
2019-05-17T21:35:11.358Z,100324.31
2019-05-17T21:37:42.182Z,100320.38
2019-05-17T21:40:13.339Z,100317.42
2019-05-17T21:42:44.445Z,100316.67
2019-05-17T21:45:15.494Z,100319.38
2019-05-17T21:47:46.393Z,100321.34
2019-05-17T21:50:17.399Z,100316.67
2019-05-17T21:52:48.415Z,100316.55
2019-05-17T21:55:19.232Z,100314.83
2019-05-17T21:57:50.395Z,100318.15
2019-05-17T22:01:00.373Z,100320.34
2019-05-17T22:03:33.775Z,100316.19
2019-05-17T22:06:04.857Z,100314.79
2019-05-17T22:08:35.774Z,100318.15
2019-05-17T22:11:06.787Z,100311.00
2019-05-17T22:13:37.635Z,100312.20
2019-05-17T22:16:19.138Z,100314.91
2019-05-17T22:18:42.935Z,100315.91
2019-05-17T22:21:14.473Z,100312.07
2019-05-17T22:23:47.260Z,100310.11
2019-05-17T22:26:18.080Z,100307.41
2019-05-17T22:28:50.183Z,100310.50
2019-05-17T22:31:21.199Z,100306.45
2019-05-17T22:33:52.366Z,100303.73
2019-05-17T22:36:23.960Z,100306.58
2019-05-17T22:38:55.054Z,100302.88
2019-05-17T22:41:25.782Z,100302.88
2019-05-17T22:43:56.586Z,100303.27
2019-05-17T22:46:35.586Z,100307.80
2019-05-17T22:48:59.786Z,100306.19
2019-05-17T22:51:30.381Z,100303.61
2019-05-17T22:54:01.160Z,100303.34
2019-05-17T22:56:32.788Z,100304.22
2019-05-17T22:59:03.839Z,100298.91
2019-05-17T23:01:34.921Z,100294.61
2019-05-17T23:04:05.746Z,100296.19
2019-05-17T23:06:36.413Z,100283.39
2019-05-17T23:09:07.464Z,100287.06
2019-05-17T23:11:38.079Z,100281.16
2019-05-17T23:14:08.690Z,100280.64
2019-05-17T23:16:51.234Z,100275.70
2019-05-17T23:19:11.953Z,100277.51
2019-05-17T23:21:42.626Z,100282.31
2019-05-17T23:24:14.279Z,100280.97
2019-05-17T23:26:46.066Z,100285.76
2019-05-17T23:29:41.355Z,100282.05
2019-05-17T23:32:12.098Z,100283.70
2019-05-17T23:34:42.733Z,100294.77
2019-05-17T23:37:13.303Z,100290.70
2019-05-17T23:39:43.921Z,100291.67
2019-05-17T23:42:14.661Z,100293.23
2019-05-17T23:44:45.291Z,100286.14
2019-05-17T23:47:16.073Z,100289.96
2019-05-17T23:49:46.784Z,100288.53
2019-05-17T23:52:17.417Z,100289.34
2019-05-17T23:54:50.095Z,100287.27
2019-05-17T23:57:22.717Z,100292.19
2019-05-17T23:59:53.788Z,100295.75
